createdAt,value
2023-03-24T00:00:43.207Z,13.31
2023-03-24T00:05:45.012Z,13.31
2023-03-24T00:10:47.494Z,13.33
2023-03-24T00:15:49.226Z,13.34
2023-03-24T00:20:58.217Z,13.37
2023-03-24T00:26:06.340Z,13.42
2023-03-24T00:31:08.710Z,13.47
2023-03-24T00:36:11.939Z,13.49
2023-03-24T00:41:13.505Z,13.48
2023-03-24T00:46:27.336Z,13.50
2023-03-24T00:51:35.986Z,13.48
2023-03-24T00:56:40.138Z,13.44
2023-03-24T01:01:43.212Z,13.34
2023-03-24T01:06:44.731Z,13.29
2023-03-24T01:11:46.307Z,13.26
2023-03-24T01:16:47.964Z,13.24
2023-03-24T01:21:50.876Z,13.28
2023-03-24T01:26:52.546Z,13.29
2023-03-24T01:31:54.168Z,13.31
2023-03-24T01:36:55.946Z,13.33
2023-03-24T01:41:57.482Z,13.35
2023-03-24T01:47:00.900Z,13.40
2023-03-24T01:52:11.941Z,13.48
2023-03-24T01:57:20.677Z,13.52
2023-03-24T02:02:26.431Z,13.54
2023-03-24T02:07:52.806Z,13.52
2023-03-24T02:12:55.371Z,13.47
2023-03-24T02:18:21.010Z,13.50
2023-03-24T02:24:00.674Z,13.51
2023-03-24T02:29:20.816Z,13.49
2023-03-24T02:35:01.093Z,13.46
2023-03-24T02:40:26.138Z,13.39
2023-03-24T02:45:31.015Z,13.32
2023-03-24T02:50:41.301Z,13.26
2023-03-24T02:56:12.434Z,13.19
2023-03-24T03:01:31.484Z,13.12
2023-03-24T03:06:52.731Z,13.09
2023-03-24T03:11:57.836Z,13.09
2023-03-24T03:17:23.584Z,13.15
2023-03-24T03:22:31.359Z,13.20
2023-03-24T03:27:39.209Z,13.22
2023-03-24T03:32:54.065Z,13.23
2023-03-24T03:38:04.795Z,13.23
2023-03-24T03:43:06.345Z,13.24
2023-03-24T03:48:08.299Z,13.27
2023-03-24T03:53:14.014Z,13.28
2023-03-24T03:58:15.714Z,13.28
2023-03-24T04:03:30.275Z,13.30
2023-03-24T04:08:38.577Z,13.28
2023-03-24T04:14:27.810Z,13.29
2023-03-24T04:20:14.808Z,13.28
2023-03-24T04:25:58.539Z,13.30
2023-03-24T04:31:26.572Z,13.30
2023-03-24T04:36:42.526Z,13.30
2023-03-24T04:42:10.341Z,13.25
2023-03-24T04:47:14.259Z,13.22
2023-03-24T04:52:27.900Z,13.19
2023-03-24T04:57:29.578Z,13.20
2023-03-24T05:02:35.552Z,13.21
2023-03-24T05:07:44.900Z,13.21
2023-03-24T05:12:50.239Z,13.20
2023-03-24T05:17:52.580Z,13.20
2023-03-24T05:22:57.915Z,13.18
2023-03-24T05:28:00.471Z,13.17
2023-03-24T05:33:02.479Z,13.18
2023-03-24T05:38:04.073Z,13.17
2023-03-24T05:43:08.054Z,13.14
2023-03-24T05:48:14.501Z,13.09
2023-03-24T05:53:35.377Z,13.18
2023-03-24T05:58:51.264Z,13.25
2023-03-24T06:03:53.161Z,13.38
2023-03-24T06:08:54.731Z,13.46
2023-03-24T06:14:00.446Z,13.54
2023-03-24T06:19:08.347Z,13.61
2023-03-24T06:24:39.290Z,13.70
2023-03-24T06:29:43.995Z,13.79
2023-03-24T06:34:47.627Z,13.93
2023-03-24T06:40:08.168Z,14.00
2023-03-24T06:45:10.991Z,14.07
2023-03-24T06:50:13.077Z,14.17
2023-03-24T06:55:14.567Z,14.25
2023-03-24T07:00:16.270Z,14.36
2023-03-24T07:05:30.742Z,14.47
2023-03-24T07:10:32.597Z,14.58
2023-03-24T07:15:34.932Z,14.72
2023-03-24T07:20:38.390Z,14.85
2023-03-24T07:25:46.977Z,14.97
2023-03-24T07:30:55.364Z,15.14
2023-03-24T07:35:57.960Z,15.29
2023-03-24T07:41:00.939Z,15.44
2023-03-24T07:46:05.013Z,15.57
2023-03-24T07:51:08.079Z,15.72
2023-03-24T07:56:30.043Z,15.90
2023-03-24T08:01:36.739Z,16.04
2023-03-24T08:06:43.629Z,16.04
2023-03-24T08:11:45.748Z,16.05
2023-03-24T08:16:47.228Z,16.19
2023-03-24T08:21:48.714Z,16.43
2023-03-24T08:26:50.138Z,16.54
2023-03-24T08:31:51.628Z,16.74
2023-03-24T08:36:53.470Z,16.82
2023-03-24T08:41:54.946Z,16.69
2023-03-24T08:46:56.404Z,16.55
2023-03-24T08:51:57.883Z,16.42
2023-03-24T08:56:59.323Z,16.39
2023-03-24T09:02:00.970Z,16.52
2023-03-24T09:07:03.116Z,16.72
2023-03-24T09:12:04.865Z,16.81
2023-03-24T09:17:06.864Z,16.90
2023-03-24T09:22:08.273Z,17.05
2023-03-24T09:27:10.398Z,17.13
2023-03-24T09:32:11.830Z,17.20
2023-03-24T09:37:13.325Z,17.24
2023-03-24T09:42:24.500Z,17.11
2023-03-24T09:47:33.558Z,17.02
2023-03-24T09:52:40.469Z,16.93
2023-03-24T09:57:45.124Z,16.89
2023-03-24T10:02:47.699Z,17.02
2023-03-24T10:08:02.632Z,17.05
2023-03-24T10:13:08.666Z,17.20
2023-03-24T10:18:36.677Z,17.32
2023-03-24T10:23:53.911Z,17.45
2023-03-24T10:29:17.248Z,17.71
2023-03-24T10:34:19.404Z,17.75
2023-03-24T10:39:26.089Z,17.75
2023-03-24T10:44:36.167Z,18.04
2023-03-24T10:49:38.578Z,18.09
2023-03-24T10:54:53.966Z,18.13
2023-03-24T11:00:14.898Z,18.23
2023-03-24T11:05:19.660Z,18.11
2023-03-24T11:10:25.724Z,17.85
2023-03-24T11:15:30.350Z,17.65
2023-03-24T11:20:35.367Z,17.55
2023-03-24T11:25:40.771Z,17.51
2023-03-24T11:30:51.216Z,17.59
2023-03-24T11:36:04.816Z,17.79
2023-03-24T11:41:21.719Z,17.86
2023-03-24T11:46:23.447Z,18.03
2023-03-24T11:51:44.241Z,18.07
2023-03-24T11:56:50.732Z,18.09
2023-03-24T12:02:08.261Z,18.08
2023-03-24T12:07:48.404Z,18.23
2023-03-24T12:13:04.743Z,18.55
2023-03-24T12:18:15.420Z,18.62
2023-03-24T12:23:28.832Z,18.43
2023-03-24T12:28:45.598Z,18.27
2023-03-24T12:34:25.705Z,18.07
2023-03-24T12:39:35.630Z,17.88
2023-03-24T12:44:45.906Z,17.65
2023-03-24T12:50:20.698Z,17.52
2023-03-24T12:55:35.263Z,17.48
2023-03-24T13:00:44.590Z,17.50
2023-03-24T13:06:07.399Z,17.36
2023-03-24T13:11:32.362Z,17.24
2023-03-24T13:16:37.715Z,17.15
2023-03-24T13:21:39.878Z,17.11
2023-03-24T13:27:00.625Z,17.21
2023-03-24T13:32:14.233Z,17.36
2023-03-24T13:37:22.635Z,17.43
2023-03-24T13:42:37.062Z,17.35
2023-03-24T13:47:49.390Z,17.13
2023-03-24T13:52:51.617Z,16.61
2023-03-24T13:58:19.583Z,15.41
2023-03-24T14:03:41.804Z,12.97
2023-03-24T14:08:52.365Z,11.88
2023-03-24T14:13:54.186Z,11.30
2023-03-24T14:19:17.665Z,11.13
2023-03-24T14:24:28.501Z,10.97
2023-03-24T14:29:40.158Z,10.91
2023-03-24T14:34:51.317Z,11.02
2023-03-24T14:39:57.144Z,11.01
2023-03-24T14:45:03.880Z,10.87
2023-03-24T14:50:32.179Z,10.91
2023-03-24T14:55:34.174Z,11.17
2023-03-24T15:00:45.488Z,11.43
2023-03-24T15:05:51.124Z,11.52
2023-03-24T15:31:15.787Z,11.71
2023-03-24T15:36:21.798Z,11.83
2023-03-24T15:41:23.240Z,11.92
2023-03-24T15:46:29.107Z,12.01
2023-03-24T15:51:49.550Z,12.35
2023-03-24T15:57:18.166Z,12.44
2023-03-24T16:02:27.920Z,12.23
2023-03-24T16:07:33.484Z,12.09
2023-03-24T16:12:36.722Z,12.00
2023-03-24T16:17:38.184Z,11.96
2023-03-24T16:22:39.602Z,11.89
2023-03-24T16:27:41.116Z,11.80
2023-03-24T16:32:42.855Z,11.74
2023-03-24T16:37:45.398Z,11.69
2023-03-24T16:42:46.872Z,11.65
2023-03-24T16:47:48.401Z,11.64
2023-03-24T16:52:49.864Z,11.63
2023-03-24T16:57:51.317Z,11.55
2023-03-24T17:02:53.730Z,11.39
2023-03-24T17:07:56.549Z,11.21
2023-03-24T17:12:58.006Z,11.07
2023-03-24T17:18:00.371Z,11.02
2023-03-24T17:23:02.076Z,10.95
2023-03-24T17:28:03.816Z,10.90
2023-03-24T17:33:05.522Z,10.85
2023-03-24T17:38:06.935Z,10.83
2023-03-24T17:43:08.430Z,10.78
2023-03-24T17:48:09.864Z,10.76
2023-03-24T17:53:13.425Z,10.79
2023-03-24T17:58:14.825Z,10.77
2023-03-24T18:03:16.582Z,10.78
2023-03-24T18:08:17.994Z,10.78
2023-03-24T18:13:19.446Z,10.76
2023-03-24T18:18:20.930Z,10.70
2023-03-24T18:23:22.384Z,10.63
2023-03-24T18:28:23.883Z,10.61
2023-03-24T18:33:25.359Z,10.66
2023-03-24T18:38:26.894Z,10.65
2023-03-24T18:43:30.459Z,10.65
2023-03-24T18:48:31.955Z,10.64
2023-03-24T18:53:37.333Z,10.66
2023-03-24T18:58:38.795Z,10.65
2023-03-24T19:03:43.849Z,10.63
2023-03-24T19:08:50.842Z,10.57
2023-03-24T19:13:52.280Z,10.49
2023-03-24T19:18:53.838Z,10.34
2023-03-24T19:23:56.778Z,10.23
2023-03-24T19:28:58.234Z,10.17
2023-03-24T19:33:59.625Z,10.18
2023-03-24T19:39:01.884Z,10.25
2023-03-24T19:44:03.293Z,10.23
2023-03-24T19:49:04.706Z,10.20
2023-03-24T19:54:06.149Z,10.13
2023-03-24T19:59:07.557Z,10.08
2023-03-24T20:04:10.188Z,10.04
2023-03-24T20:09:13.504Z,10.01
2023-03-24T20:14:16.747Z,10.02
2023-03-24T20:19:18.288Z,10.06
2023-03-24T20:24:19.739Z,10.08
2023-03-24T20:29:21.855Z,10.08
2023-03-24T20:34:23.486Z,10.07
2023-03-24T20:39:25.210Z,10.07
2023-03-24T20:44:27.243Z,10.06
2023-03-24T20:49:28.928Z,10.02
2023-03-24T20:54:30.326Z,10.01
2023-03-24T20:59:31.880Z,9.97
2023-03-24T21:04:33.857Z,9.94
2023-03-24T21:09:35.548Z,9.90
2023-03-24T21:14:37.473Z,9.91
2023-03-24T21:19:38.982Z,9.90
2023-03-24T21:24:42.072Z,9.85
2023-03-24T21:29:43.508Z,9.81
2023-03-24T21:34:44.921Z,9.80
2023-03-24T21:39:46.356Z,9.81
2023-03-24T21:44:48.021Z,9.80
2023-03-24T21:49:49.498Z,9.78
2023-03-24T21:54:50.914Z,9.80
2023-03-24T21:59:52.624Z,9.81
2023-03-24T22:04:54.763Z,9.81
2023-03-24T22:09:56.166Z,9.88
2023-03-24T22:14:57.710Z,10.07
2023-03-24T22:19:59.115Z,10.31
2023-03-24T22:25:00.666Z,10.50
2023-03-24T22:30:02.860Z,10.64
2023-03-24T22:35:04.764Z,10.75
2023-03-24T22:40:08.426Z,10.79
2023-03-24T22:45:10.251Z,10.84
2023-03-24T22:50:11.690Z,10.87
2023-03-24T22:55:13.118Z,10.83
2023-03-24T23:00:16.094Z,10.77
2023-03-24T23:05:17.634Z,10.64
2023-03-24T23:10:19.494Z,10.54
2023-03-24T23:15:23.084Z,10.45
2023-03-24T23:20:24.867Z,10.40
2023-03-24T23:25:30.392Z,10.39
2023-03-24T23:30:32.534Z,10.36
2023-03-24T23:35:34.039Z,10.29
2023-03-24T23:40:35.598Z,10.23
2023-03-24T23:45:37.160Z,10.17
2023-03-24T23:50:38.676Z,10.11
2023-03-24T23:55:41.581Z,10.03
